createdAt,value
2018-07-20T00:00:16.223Z,25.30
2018-07-20T00:05:19.447Z,25.20
2018-07-20T00:10:22.663Z,25.20
2018-07-20T00:15:25.912Z,25.20
2018-07-20T00:20:29.159Z,25.10
2018-07-20T00:25:32.388Z,25.10
2018-07-20T00:30:35.600Z,25.00
2018-07-20T00:35:38.804Z,25.00
2018-07-20T00:40:42.015Z,24.90
2018-07-20T00:45:45.219Z,24.90
2018-07-20T00:50:48.415Z,24.80
2018-07-20T00:55:51.624Z,24.80
2018-07-20T01:00:54.819Z,24.80
2018-07-20T01:05:58.022Z,24.80
2018-07-20T01:11:01.247Z,24.70
2018-07-20T01:16:04.452Z,24.70
2018-07-20T01:21:07.967Z,24.70
2018-07-20T01:26:11.164Z,24.60
2018-07-20T01:31:14.375Z,24.60
2018-07-20T01:36:17.575Z,24.60
2018-07-20T01:41:20.793Z,24.50
2018-07-20T01:46:23.992Z,24.50
2018-07-20T01:51:27.198Z,24.50
2018-07-20T01:56:30.414Z,24.40
2018-07-20T02:01:33.623Z,24.40
2018-07-20T02:06:36.831Z,24.40
2018-07-20T02:11:40.058Z,24.40
2018-07-20T02:16:43.255Z,24.30
2018-07-20T02:21:46.443Z,24.30
2018-07-20T02:26:49.641Z,24.30
2018-07-20T02:31:52.831Z,24.20
2018-07-20T02:36:56.019Z,24.20
2018-07-20T02:41:59.208Z,24.20
2018-07-20T02:47:02.402Z,24.10
2018-07-20T02:52:05.611Z,24.10
2018-07-20T02:57:08.806Z,24.10
2018-07-20T03:02:12.009Z,24.00
2018-07-20T03:07:15.207Z,24.00
2018-07-20T03:12:18.439Z,24.00
2018-07-20T03:17:21.647Z,24.00
2018-07-20T03:22:24.892Z,23.90
2018-07-20T03:27:28.054Z,23.90
2018-07-20T03:32:31.278Z,23.80
2018-07-20T03:37:34.798Z,23.80
2018-07-20T03:42:38.003Z,23.80
2018-07-20T03:47:41.210Z,23.80
2018-07-20T03:52:44.415Z,23.70
2018-07-20T03:57:47.851Z,23.70
2018-07-20T04:02:51.078Z,23.70
2018-07-20T04:07:54.279Z,23.70
2018-07-20T04:12:57.510Z,23.60
2018-07-20T04:18:00.715Z,23.60
2018-07-20T04:23:03.918Z,23.60
2018-07-20T04:28:07.123Z,23.30
2018-07-20T04:33:10.336Z,23.50
2018-07-20T04:38:13.547Z,23.40
2018-07-20T04:43:16.752Z,23.40
2018-07-20T04:48:19.959Z,23.40
2018-07-20T04:53:23.163Z,23.00
2018-07-20T04:58:26.366Z,23.10
2018-07-20T05:03:29.576Z,23.10
2018-07-20T05:08:32.775Z,23.20
2018-07-20T05:13:35.995Z,23.40
2018-07-20T05:18:39.211Z,23.30
2018-07-20T05:23:42.402Z,23.00
2018-07-20T05:28:45.599Z,23.30
2018-07-20T05:33:48.790Z,23.40
2018-07-20T05:38:52.008Z,23.40
2018-07-20T05:43:55.233Z,23.00
2018-07-20T05:48:58.411Z,23.30
2018-07-20T05:54:01.623Z,23.10
2018-07-20T05:59:04.816Z,23.30
2018-07-20T06:04:08.119Z,23.40
2018-07-20T06:09:12.859Z,23.40
2018-07-20T06:14:16.089Z,23.40
2018-07-20T06:19:19.266Z,23.70
2018-07-20T06:24:22.458Z,23.50
2018-07-20T06:29:25.656Z,23.50
2018-07-20T06:34:28.852Z,23.30
2018-07-20T06:39:32.143Z,23.60
2018-07-20T06:44:35.335Z,23.70
2018-07-20T06:49:38.542Z,23.70
2018-07-20T06:54:41.854Z,23.70
2018-07-20T06:59:45.047Z,23.80
2018-07-20T07:04:48.251Z,23.60
2018-07-20T07:09:52.059Z,23.80
2018-07-20T07:14:55.324Z,23.90
2018-07-20T07:19:58.467Z,23.90
2018-07-20T07:25:01.667Z,24.00
2018-07-20T07:30:05.303Z,24.00
2018-07-20T07:35:08.506Z,24.10
2018-07-20T07:40:11.711Z,24.10
2018-07-20T07:45:14.914Z,24.20
2018-07-20T07:50:18.118Z,24.30
2018-07-20T07:55:21.319Z,24.30
2018-07-20T08:00:24.523Z,24.40
2018-07-20T08:05:27.835Z,24.50
2018-07-20T08:10:31.052Z,24.60
2018-07-20T08:15:34.275Z,24.60
2018-07-20T08:20:37.479Z,24.70
2018-07-20T08:25:40.691Z,24.80
2018-07-20T08:30:43.899Z,24.90
2018-07-20T08:35:47.103Z,25.00
2018-07-20T08:40:50.310Z,25.00
2018-07-20T08:45:53.510Z,25.10
2018-07-20T08:50:56.723Z,25.20
2018-07-20T08:55:59.928Z,25.30
2018-07-20T09:01:03.135Z,25.40
2018-07-20T09:06:06.349Z,25.50
2018-07-20T09:11:09.580Z,25.60
2018-07-20T09:16:12.778Z,25.70
2018-07-20T09:21:15.978Z,25.80
2018-07-20T09:26:19.182Z,25.90
2018-07-20T09:31:22.407Z,26.00
2018-07-20T09:36:25.610Z,26.10
2018-07-20T09:41:28.808Z,26.20
2018-07-20T09:46:32.015Z,26.30
2018-07-20T09:51:35.219Z,26.40
2018-07-20T09:56:38.426Z,26.50
2018-07-20T10:01:41.744Z,26.60
2018-07-20T10:06:44.944Z,26.80
2018-07-20T10:11:48.167Z,26.90
2018-07-20T10:16:51.367Z,26.90
2018-07-20T10:21:54.559Z,27.10
2018-07-20T10:26:57.767Z,27.20
2018-07-20T10:32:00.965Z,27.30
2018-07-20T10:37:04.168Z,27.40
2018-07-20T10:42:07.491Z,27.50
2018-07-20T10:47:10.678Z,27.60
2018-07-20T10:52:13.871Z,27.70
2018-07-20T10:57:17.075Z,27.90
2018-07-20T11:02:20.274Z,27.90
2018-07-20T11:07:23.498Z,28.00
2018-07-20T11:12:26.702Z,28.10
2018-07-20T11:17:29.899Z,28.30
2018-07-20T11:22:33.107Z,28.40
2018-07-20T11:27:36.307Z,28.40
2018-07-20T11:32:39.506Z,28.50
2018-07-20T11:37:42.699Z,28.60
2018-07-20T11:42:45.931Z,28.70
2018-07-20T11:47:49.131Z,28.80
2018-07-20T11:52:52.330Z,28.90
2018-07-20T11:57:55.524Z,28.90
2018-07-20T12:02:58.723Z,29.00
2018-07-20T12:08:01.918Z,29.00
2018-07-20T12:13:05.155Z,29.20
2018-07-20T12:18:08.355Z,29.20
2018-07-20T12:23:11.562Z,29.30
2018-07-20T12:28:14.819Z,29.30
2018-07-20T12:33:18.015Z,29.30
2018-07-20T12:38:21.225Z,29.40
2018-07-20T12:43:24.428Z,29.40
2018-07-20T12:48:27.635Z,29.40
2018-07-20T12:53:31.362Z,29.50
2018-07-20T12:58:34.612Z,29.50
2018-07-20T13:03:37.750Z,29.50
2018-07-20T13:08:40.951Z,29.60
2018-07-20T13:13:44.175Z,29.60
2018-07-20T13:18:47.379Z,29.70
2018-07-20T13:23:50.644Z,29.70
2018-07-20T13:28:53.811Z,29.70
2018-07-20T13:33:57.023Z,29.70
2018-07-20T13:39:00.226Z,29.70
2018-07-20T13:44:03.427Z,29.70
2018-07-20T13:49:06.751Z,29.70
2018-07-20T13:54:09.961Z,29.70
2018-07-20T13:59:13.158Z,29.70
2018-07-20T14:04:16.367Z,29.70
2018-07-20T14:09:19.571Z,29.80
2018-07-20T14:14:22.911Z,29.80
2018-07-20T14:19:26.099Z,29.80
2018-07-20T14:24:29.435Z,29.80
2018-07-20T14:29:32.624Z,29.80
2018-07-20T14:34:35.822Z,29.80
2018-07-20T14:39:39.016Z,29.80
2018-07-20T14:44:42.202Z,29.90
2018-07-20T14:49:45.590Z,29.90
2018-07-20T14:54:48.819Z,29.90
2018-07-20T14:59:51.979Z,29.90
2018-07-20T15:04:55.195Z,30.00
2018-07-20T15:09:58.971Z,30.00
2018-07-20T15:15:02.195Z,30.00
2018-07-20T15:20:06.170Z,30.00
2018-07-20T15:25:09.367Z,30.00
2018-07-20T15:30:12.566Z,30.10
2018-07-20T15:35:15.767Z,30.10
2018-07-20T15:40:19.144Z,30.10
2018-07-20T15:45:22.335Z,30.10
2018-07-20T15:50:25.555Z,30.10
2018-07-20T15:55:28.750Z,30.10
2018-07-20T16:00:31.946Z,30.20
2018-07-20T16:05:35.172Z,30.10
2018-07-20T16:10:38.335Z,30.10
2018-07-20T16:15:41.544Z,30.10
2018-07-20T16:20:44.739Z,30.10
2018-07-20T16:25:48.012Z,30.10
2018-07-20T16:30:51.127Z,30.10
2018-07-20T16:35:54.553Z,30.10
2018-07-20T16:40:57.698Z,30.10
2018-07-20T16:46:00.890Z,30.10
2018-07-20T16:56:07.194Z,30.10
2018-07-20T17:01:10.400Z,30.10
2018-07-20T17:06:13.595Z,30.10
2018-07-20T17:11:16.836Z,30.10
2018-07-20T17:16:20.040Z,30.10
2018-07-20T17:21:23.238Z,30.10
2018-07-20T17:26:26.447Z,30.00
2018-07-20T17:31:29.659Z,30.00
2018-07-20T17:36:32.871Z,30.00
2018-07-20T17:41:36.075Z,30.00
2018-07-20T17:46:39.282Z,29.90
2018-07-20T17:51:42.497Z,29.90
2018-07-20T17:56:45.719Z,29.90
2018-07-20T18:01:48.935Z,29.80
2018-07-20T18:06:52.142Z,29.80
2018-07-20T18:11:55.360Z,29.70
2018-07-20T18:16:58.558Z,29.80
2018-07-20T18:22:01.762Z,29.70
2018-07-20T18:27:05.125Z,29.70
2018-07-20T18:32:08.322Z,29.60
2018-07-20T18:37:11.523Z,29.60
2018-07-20T18:42:14.810Z,29.50
2018-07-20T18:47:17.919Z,29.50
2018-07-20T18:52:21.119Z,29.40
2018-07-20T18:57:24.317Z,29.30
2018-07-20T19:02:27.510Z,29.30
2018-07-20T19:07:30.707Z,29.20
2018-07-20T19:12:33.926Z,29.20
2018-07-20T19:17:37.131Z,29.10
2018-07-20T19:22:40.351Z,29.00
2018-07-20T19:27:43.556Z,29.00
2018-07-20T19:32:46.798Z,28.90
2018-07-20T19:37:49.963Z,28.90
2018-07-20T19:42:53.182Z,28.80
2018-07-20T19:47:56.391Z,28.80
2018-07-20T19:52:59.616Z,28.70
2018-07-20T19:58:03.212Z,28.70
2018-07-20T20:08:09.391Z,28.60
2018-07-20T20:13:12.603Z,28.50
2018-07-20T20:18:15.798Z,28.50
2018-07-20T20:23:18.990Z,28.40
2018-07-20T20:28:22.182Z,28.40
2018-07-20T20:33:25.379Z,28.30
2018-07-20T20:38:28.571Z,28.30
2018-07-20T20:43:31.816Z,28.20
2018-07-20T20:48:34.987Z,28.20
2018-07-20T20:53:38.192Z,28.10
2018-07-20T20:58:41.387Z,28.00
2018-07-20T21:03:44.598Z,28.00
2018-07-20T21:08:47.923Z,27.90
2018-07-20T21:13:51.143Z,27.90
2018-07-20T21:18:54.349Z,27.80
2018-07-20T21:23:57.555Z,27.80
2018-07-20T21:29:00.767Z,27.80
2018-07-20T21:34:03.967Z,27.70
2018-07-20T21:39:08.923Z,27.70
2018-07-20T21:44:12.339Z,27.60
2018-07-20T21:49:15.546Z,27.60
2018-07-20T21:54:18.754Z,27.50
2018-07-20T21:59:21.950Z,27.50
2018-07-20T22:04:25.156Z,27.50
2018-07-20T22:09:28.363Z,27.40
2018-07-20T22:14:31.575Z,27.40
2018-07-20T22:19:34.762Z,27.30
2018-07-20T22:24:37.962Z,27.30
2018-07-20T22:29:41.180Z,27.30
2018-07-20T22:34:44.372Z,27.20
2018-07-20T22:39:47.564Z,27.20
2018-07-20T22:44:50.755Z,27.10
2018-07-20T22:49:53.954Z,27.10
2018-07-20T22:54:57.151Z,27.10
2018-07-20T23:00:00.347Z,27.10
2018-07-20T23:05:03.704Z,27.00
2018-07-20T23:10:06.895Z,27.00
2018-07-20T23:15:10.118Z,27.00
2018-07-20T23:20:13.331Z,27.00
2018-07-20T23:25:16.719Z,26.90
2018-07-20T23:30:19.911Z,26.90
2018-07-20T23:35:23.276Z,26.90
2018-07-20T23:40:26.462Z,26.90
2018-07-20T23:45:29.658Z,26.80
2018-07-20T23:50:32.850Z,26.80
2018-07-20T23:55:36.042Z,26.80
